Holly Ridge, North Carolina
Current Conditions -  °F | °C
As of 3:56 PM on Saturday 22 Nov 2014 (Local Time) from KNCA Reporting Station
Clear Clear  
Wind Chill: 56°   Ceiling: Unl
Heat Index: 56°   Visibility: 10mi
Dew Point: 36°   Wind: 6mph
Humidity: 47%   Direction: 100°E
Pressure: 30.41"   Gusts: NA
Location:  34.5°N, 77.55°W
Report Text: KNCA 222056Z AUTO 10005KT 10SM CLR 13/02 A3041 RMK AO2 SLP300 T01330022 56022 $
Loading
Personal Weather Stations






























Interactive Weather Map New forecast layout! Learn more

10-Day Weather Forecast

Advertisements
Track Severe Weather on mobile